sensor_id;sensor_type;location;lat;lon;timestamp;temperature;humidity
21108;DHT22;10712;52.944;9.098;2022-12-18T00:01:53;-8.10;81.80
21108;DHT22;10712;52.944;9.098;2022-12-18T00:04:22;-8.10;82.00
21108;DHT22;10712;52.944;9.098;2022-12-18T00:06:49;-8.10;82.10
21108;DHT22;10712;52.944;9.098;2022-12-18T00:09:16;-8.10;82.10
21108;DHT22;10712;52.944;9.098;2022-12-18T00:11:42;-8.10;82.00
21108;DHT22;10712;52.944;9.098;2022-12-18T00:14:08;-8.10;82.00
21108;DHT22;10712;52.944;9.098;2022-12-18T00:16:36;-8.10;81.90
21108;DHT22;10712;52.944;9.098;2022-12-18T00:19:02;-8.10;81.40
21108;DHT22;10712;52.944;9.098;2022-12-18T00:21:29;-8.20;81.00
21108;DHT22;10712;52.944;9.098;2022-12-18T00:23:56;-8.20;81.20
21108;DHT22;10712;52.944;9.098;2022-12-18T00:26:23;-8.20;81.50
21108;DHT22;10712;52.944;9.098;2022-12-18T00:29:00;-8.20;81.50
21108;DHT22;10712;52.944;9.098;2022-12-18T00:31:29;-8.20;81.50
21108;DHT22;10712;52.944;9.098;2022-12-18T00:33:55;-8.20;81.50
21108;DHT22;10712;52.944;9.098;2022-12-18T00:36:23;-8.20;81.50
21108;DHT22;10712;52.944;9.098;2022-12-18T00:38:55;-8.20;81.40
21108;DHT22;10712;52.944;9.098;2022-12-18T00:41:22;-8.20;81.40
21108;DHT22;10712;52.944;9.098;2022-12-18T00:44:07;-8.30;81.30
21108;DHT22;10712;52.944;9.098;2022-12-18T00:46:35;-8.30;81.40
21108;DHT22;10712;52.944;9.098;2022-12-18T00:49:01;-8.30;81.40
21108;DHT22;10712;52.944;9.098;2022-12-18T00:51:27;-8.40;80.70
21108;DHT22;10712;52.944;9.098;2022-12-18T00:53:53;-8.50;80.70
21108;DHT22;10712;52.944;9.098;2022-12-18T00:56:19;-8.50;81.10
21108;DHT22;10712;52.944;9.098;2022-12-18T00:58:44;-8.50;81.60
21108;DHT22;10712;52.944;9.098;2022-12-18T01:01:10;-8.50;81.80
21108;DHT22;10712;52.944;9.098;2022-12-18T01:03:36;-8.50;81.80
21108;DHT22;10712;52.944;9.098;2022-12-18T01:06:11;-8.50;81.70
21108;DHT22;10712;52.944;9.098;2022-12-18T01:08:38;-8.50;81.70
21108;DHT22;10712;52.944;9.098;2022-12-18T01:11:08;-8.50;81.70
21108;DHT22;10712;52.944;9.098;2022-12-18T01:13:38;-8.50;81.70
21108;DHT22;10712;52.944;9.098;2022-12-18T01:16:05;-8.40;81.80
21108;DHT22;10712;52.944;9.098;2022-12-18T01:18:34;-8.40;81.80
21108;DHT22;10712;52.944;9.098;2022-12-18T01:21:00;-8.40;81.70
21108;DHT22;10712;52.944;9.098;2022-12-18T01:23:30;-8.40;81.70
21108;DHT22;10712;52.944;9.098;2022-12-18T01:25:56;-8.40;81.80
21108;DHT22;10712;52.944;9.098;2022-12-18T01:28:21;-8.30;81.80
21108;DHT22;10712;52.944;9.098;2022-12-18T01:30:47;-8.30;81.70
21108;DHT22;10712;52.944;9.098;2022-12-18T01:33:13;-8.30;81.70
21108;DHT22;10712;52.944;9.098;2022-12-18T01:35:42;-8.30;81.70
21108;DHT22;10712;52.944;9.098;2022-12-18T01:38:08;-8.30;81.70
21108;DHT22;10712;52.944;9.098;2022-12-18T01:40:34;-8.30;81.70
21108;DHT22;10712;52.944;9.098;2022-12-18T01:43:00;-8.20;81.70
21108;DHT22;10712;52.944;9.098;2022-12-18T01:45:27;-8.20;81.80
21108;DHT22;10712;52.944;9.098;2022-12-18T01:48:03;-8.20;81.80
21108;DHT22;10712;52.944;9.098;2022-12-18T01:50:36;-8.20;81.80
21108;DHT22;10712;52.944;9.098;2022-12-18T01:53:06;-8.20;81.80
21108;DHT22;10712;52.944;9.098;2022-12-18T01:55:40;-8.20;81.70
21108;DHT22;10712;52.944;9.098;2022-12-18T01:58:10;-8.30;81.40
21108;DHT22;10712;52.944;9.098;2022-12-18T02:00:36;-8.30;81.30
21108;DHT22;10712;52.944;9.098;2022-12-18T02:03:02;-8.30;81.40
21108;DHT22;10712;52.944;9.098;2022-12-18T02:16:26;-8.40;81.50
21108;DHT22;10712;52.944;9.098;2022-12-18T02:19:34;-8.40;81.50
21108;DHT22;10712;52.944;9.098;2022-12-18T02:25:33;-8.40;81.40
21108;DHT22;10712;52.944;9.098;2022-12-18T02:28:12;-8.40;81.50
21108;DHT22;10712;52.944;9.098;2022-12-18T02:30:41;-8.40;81.40
21108;DHT22;10712;52.944;9.098;2022-12-18T02:33:08;-8.50;81.30
21108;DHT22;10712;52.944;9.098;2022-12-18T02:35:37;-8.50;81.30
21108;DHT22;10712;52.944;9.098;2022-12-18T02:38:07;-8.60;81.60
21108;DHT22;10712;52.944;9.098;2022-12-18T02:40:35;-8.60;81.80
21108;DHT22;10712;52.944;9.098;2022-12-18T02:43:11;-8.60;81.80
21108;DHT22;10712;52.944;9.098;2022-12-18T02:45:52;-8.60;81.80
21108;DHT22;10712;52.944;9.098;2022-12-18T02:48:22;-8.70;81.70
21108;DHT22;10712;52.944;9.098;2022-12-18T02:50:54;-8.70;81.80
21108;DHT22;10712;52.944;9.098;2022-12-18T02:53:25;-8.70;82.00
21108;DHT22;10712;52.944;9.098;2022-12-18T02:58:55;-8.70;81.90
21108;DHT22;10712;52.944;9.098;2022-12-18T03:04:30;-8.70;81.70
21108;DHT22;10712;52.944;9.098;2022-12-18T03:07:05;-8.70;81.80
21108;DHT22;10712;52.944;9.098;2022-12-18T03:09:38;-8.70;81.60
21108;DHT22;10712;52.944;9.098;2022-12-18T03:12:20;-8.70;81.10
21108;DHT22;10712;52.944;9.098;2022-12-18T03:14:57;-8.80;81.10
21108;DHT22;10712;52.944;9.098;2022-12-18T03:17:28;-8.80;81.30
21108;DHT22;10712;52.944;9.098;2022-12-18T03:19:59;-8.80;81.40
21108;DHT22;10712;52.944;9.098;2022-12-18T03:22:30;-8.80;81.60
21108;DHT22;10712;52.944;9.098;2022-12-18T03:24:59;-8.70;81.50
21108;DHT22;10712;52.944;9.098;2022-12-18T03:27:28;-8.70;81.50
21108;DHT22;10712;52.944;9.098;2022-12-18T03:30:03;-8.70;81.50
21108;DHT22;10712;52.944;9.098;2022-12-18T03:32:41;-8.70;81.50
21108;DHT22;10712;52.944;9.098;2022-12-18T03:35:13;-8.70;81.30
21108;DHT22;10712;52.944;9.098;2022-12-18T03:37:46;-8.60;81.30
21108;DHT22;10712;52.944;9.098;2022-12-18T03:40:12;-8.60;81.20
21108;DHT22;10712;52.944;9.098;2022-12-18T03:42:59;-8.60;81.20
21108;DHT22;10712;52.944;9.098;2022-12-18T03:45:35;-8.70;81.20
21108;DHT22;10712;52.944;9.098;2022-12-18T03:48:14;-8.70;81.20
21108;DHT22;10712;52.944;9.098;2022-12-18T03:50:47;-8.70;81.10
21108;DHT22;10712;52.944;9.098;2022-12-18T03:53:25;-8.70;81.20
21108;DHT22;10712;52.944;9.098;2022-12-18T03:55:59;-8.70;81.20
21108;DHT22;10712;52.944;9.098;2022-12-18T03:58:32;-8.70;81.30
21108;DHT22;10712;52.944;9.098;2022-12-18T04:01:14;-8.70;81.30
21108;DHT22;10712;52.944;9.098;2022-12-18T04:03:43;-8.70;81.30
21108;DHT22;10712;52.944;9.098;2022-12-18T04:06:12;-8.70;81.50
21108;DHT22;10712;52.944;9.098;2022-12-18T04:08:40;-8.70;81.50
21108;DHT22;10712;52.944;9.098;2022-12-18T04:11:10;-8.70;81.50
21108;DHT22;10712;52.944;9.098;2022-12-18T04:13:37;-8.70;81.50
21108;DHT22;10712;52.944;9.098;2022-12-18T04:16:07;-8.70;81.20
21108;DHT22;10712;52.944;9.098;2022-12-18T04:18:39;-8.70;81.10
21108;DHT22;10712;52.944;9.098;2022-12-18T04:21:05;-8.70;81.00
21108;DHT22;10712;52.944;9.098;2022-12-18T04:23:32;-8.70;81.00
21108;DHT22;10712;52.944;9.098;2022-12-18T04:25:58;-8.70;81.00
21108;DHT22;10712;52.944;9.098;2022-12-18T04:28:42;-8.70;81.00
21108;DHT22;10712;52.944;9.098;2022-12-18T04:31:08;-8.70;81.10
21108;DHT22;10712;52.944;9.098;2022-12-18T04:33:34;-8.70;81.00
21108;DHT22;10712;52.944;9.098;2022-12-18T04:36:01;-8.80;80.70
21108;DHT22;10712;52.944;9.098;2022-12-18T04:38:27;-8.80;80.80
21108;DHT22;10712;52.944;9.098;2022-12-18T04:41:01;-8.80;80.70
21108;DHT22;10712;52.944;9.098;2022-12-18T04:43:27;-8.80;80.90
21108;DHT22;10712;52.944;9.098;2022-12-18T04:45:52;-8.80;80.80
21108;DHT22;10712;52.944;9.098;2022-12-18T04:48:18;-8.80;80.80
21108;DHT22;10712;52.944;9.098;2022-12-18T04:50:46;-8.80;80.80
21108;DHT22;10712;52.944;9.098;2022-12-18T04:53:12;-8.80;80.80
21108;DHT22;10712;52.944;9.098;2022-12-18T04:55:38;-8.90;80.80
21108;DHT22;10712;52.944;9.098;2022-12-18T04:58:03;-8.90;80.90
21108;DHT22;10712;52.944;9.098;2022-12-18T05:00:29;-9.00;81.00
21108;DHT22;10712;52.944;9.098;2022-12-18T05:02:55;-9.00;81.00
21108;DHT22;10712;52.944;9.098;2022-12-18T05:05:20;-9.00;80.90
21108;DHT22;10712;52.944;9.098;2022-12-18T05:07:46;-9.00;80.60
21108;DHT22;10712;52.944;9.098;2022-12-18T05:10:12;-9.00;80.60
21108;DHT22;10712;52.944;9.098;2022-12-18T05:12:37;-9.00;80.80
21108;DHT22;10712;52.944;9.098;2022-12-18T05:15:23;-9.10;80.90
21108;DHT22;10712;52.944;9.098;2022-12-18T05:17:56;-9.10;81.00
21108;DHT22;10712;52.944;9.098;2022-12-18T05:20:23;-9.00;80.90
21108;DHT22;10712;52.944;9.098;2022-12-18T05:22:49;-9.10;80.90
21108;DHT22;10712;52.944;9.098;2022-12-18T05:25:16;-9.00;81.00
21108;DHT22;10712;52.944;9.098;2022-12-18T05:27:41;-9.00;81.00
21108;DHT22;10712;52.944;9.098;2022-12-18T05:30:07;-9.00;81.00
21108;DHT22;10712;52.944;9.098;2022-12-18T05:32:34;-9.00;81.00
21108;DHT22;10712;52.944;9.098;2022-12-18T05:34:59;-9.00;81.00
21108;DHT22;10712;52.944;9.098;2022-12-18T05:37:25;-9.00;81.10
21108;DHT22;10712;52.944;9.098;2022-12-18T05:39:51;-8.90;81.20
21108;DHT22;10712;52.944;9.098;2022-12-18T05:42:16;-8.90;81.30
21108;DHT22;10712;52.944;9.098;2022-12-18T05:44:43;-8.90;81.20
21108;DHT22;10712;52.944;9.098;2022-12-18T05:47:08;-8.90;81.20
21108;DHT22;10712;52.944;9.098;2022-12-18T05:49:34;-8.90;81.20
21108;DHT22;10712;52.944;9.098;2022-12-18T05:52:00;-8.90;81.40
21108;DHT22;10712;52.944;9.098;2022-12-18T05:54:29;-8.90;81.50
21108;DHT22;10712;52.944;9.098;2022-12-18T05:56:54;-8.90;81.60
21108;DHT22;10712;52.944;9.098;2022-12-18T05:59:20;-8.90;81.70
21108;DHT22;10712;52.944;9.098;2022-12-18T06:01:46;-8.90;81.70
21108;DHT22;10712;52.944;9.098;2022-12-18T06:04:12;-8.90;81.70
21108;DHT22;10712;52.944;9.098;2022-12-18T06:06:38;-8.80;81.90
21108;DHT22;10712;52.944;9.098;2022-12-18T06:09:03;-8.80;82.10
21108;DHT22;10712;52.944;9.098;2022-12-18T06:11:35;-8.80;82.10
21108;DHT22;10712;52.944;9.098;2022-12-18T06:14:02;-8.80;82.10
21108;DHT22;10712;52.944;9.098;2022-12-18T06:16:29;-8.80;82.10
21108;DHT22;10712;52.944;9.098;2022-12-18T06:18:56;-8.80;81.90
21108;DHT22;10712;52.944;9.098;2022-12-18T06:21:25;-8.80;82.00
21108;DHT22;10712;52.944;9.098;2022-12-18T06:23:52;-8.80;82.40
21108;DHT22;10712;52.944;9.098;2022-12-18T06:26:18;-8.80;82.70
21108;DHT22;10712;52.944;9.098;2022-12-18T06:28:44;-8.80;82.90
21108;DHT22;10712;52.944;9.098;2022-12-18T06:31:10;-8.70;82.90
21108;DHT22;10712;52.944;9.098;2022-12-18T06:33:36;-8.70;82.90
21108;DHT22;10712;52.944;9.098;2022-12-18T06:36:04;-8.70;82.70
21108;DHT22;10712;52.944;9.098;2022-12-18T06:38:35;-8.70;82.60
21108;DHT22;10712;52.944;9.098;2022-12-18T06:41:18;-8.60;82.70
21108;DHT22;10712;52.944;9.098;2022-12-18T06:43:46;-8.60;82.70
21108;DHT22;10712;52.944;9.098;2022-12-18T06:46:12;-8.60;82.80
21108;DHT22;10712;52.944;9.098;2022-12-18T06:48:38;-8.60;83.10
21108;DHT22;10712;52.944;9.098;2022-12-18T06:51:04;-8.60;83.10
21108;DHT22;10712;52.944;9.098;2022-12-18T06:53:31;-8.60;83.30
21108;DHT22;10712;52.944;9.098;2022-12-18T06:56:03;-8.60;83.40
21108;DHT22;10712;52.944;9.098;2022-12-18T06:58:31;-8.60;83.40
21108;DHT22;10712;52.944;9.098;2022-12-18T07:01:01;-8.50;83.40
21108;DHT22;10712;52.944;9.098;2022-12-18T07:03:28;-8.50;83.50
21108;DHT22;10712;52.944;9.098;2022-12-18T07:05:54;-8.50;83.70
21108;DHT22;10712;52.944;9.098;2022-12-18T07:08:20;-8.50;83.50
21108;DHT22;10712;52.944;9.098;2022-12-18T07:10:46;-8.50;83.40
21108;DHT22;10712;52.944;9.098;2022-12-18T07:13:14;-8.50;83.50
21108;DHT22;10712;52.944;9.098;2022-12-18T07:15:41;-8.50;83.50
21108;DHT22;10712;52.944;9.098;2022-12-18T07:18:06;-8.50;83.70
21108;DHT22;10712;52.944;9.098;2022-12-18T07:20:32;-8.50;83.70
21108;DHT22;10712;52.944;9.098;2022-12-18T07:22:58;-8.50;83.70
21108;DHT22;10712;52.944;9.098;2022-12-18T07:25:24;-8.50;83.90
21108;DHT22;10712;52.944;9.098;2022-12-18T07:27:49;-8.40;83.90
21108;DHT22;10712;52.944;9.098;2022-12-18T07:30:15;-8.40;84.10
21108;DHT22;10712;52.944;9.098;2022-12-18T07:32:41;-8.40;84.10
21108;DHT22;10712;52.944;9.098;2022-12-18T07:35:07;-8.30;84.30
21108;DHT22;10712;52.944;9.098;2022-12-18T07:37:32;-8.30;84.30
21108;DHT22;10712;52.944;9.098;2022-12-18T07:39:58;-8.20;84.50
21108;DHT22;10712;52.944;9.098;2022-12-18T07:42:24;-8.20;84.70
21108;DHT22;10712;52.944;9.098;2022-12-18T07:44:55;-8.10;84.70
21108;DHT22;10712;52.944;9.098;2022-12-18T07:47:21;-8.00;84.90
21108;DHT22;10712;52.944;9.098;2022-12-18T07:49:47;-8.00;84.90
21108;DHT22;10712;52.944;9.098;2022-12-18T07:52:13;-8.00;84.90
21108;DHT22;10712;52.944;9.098;2022-12-18T07:54:39;-8.00;85.00
21108;DHT22;10712;52.944;9.098;2022-12-18T07:57:05;-7.90;84.80
21108;DHT22;10712;52.944;9.098;2022-12-18T07:59:31;-7.90;84.80
21108;DHT22;10712;52.944;9.098;2022-12-18T08:01:57;-7.90;84.90
21108;DHT22;10712;52.944;9.098;2022-12-18T08:04:24;-7.90;85.00
21108;DHT22;10712;52.944;9.098;2022-12-18T08:06:50;-7.80;85.00
21108;DHT22;10712;52.944;9.098;2022-12-18T08:09:16;-7.80;85.10
21108;DHT22;10712;52.944;9.098;2022-12-18T08:11:42;-7.80;85.30
21108;DHT22;10712;52.944;9.098;2022-12-18T08:14:08;-7.80;85.50
21108;DHT22;10712;52.944;9.098;2022-12-18T08:16:35;-7.80;85.30
21108;DHT22;10712;52.944;9.098;2022-12-18T08:19:01;-7.80;85.50
21108;DHT22;10712;52.944;9.098;2022-12-18T08:21:28;-7.80;85.50
21108;DHT22;10712;52.944;9.098;2022-12-18T08:23:56;-7.70;85.60
21108;DHT22;10712;52.944;9.098;2022-12-18T08:26:24;-7.70;85.70
21108;DHT22;10712;52.944;9.098;2022-12-18T08:28:52;-7.70;85.80
21108;DHT22;10712;52.944;9.098;2022-12-18T08:31:19;-7.70;85.80
21108;DHT22;10712;52.944;9.098;2022-12-18T08:33:45;-7.60;85.90
21108;DHT22;10712;52.944;9.098;2022-12-18T08:36:15;-7.60;85.90
21108;DHT22;10712;52.944;9.098;2022-12-18T08:38:41;-7.60;86.00
21108;DHT22;10712;52.944;9.098;2022-12-18T08:41:08;-7.60;86.00
21108;DHT22;10712;52.944;9.098;2022-12-18T08:43:35;-7.50;86.00
21108;DHT22;10712;52.944;9.098;2022-12-18T08:46:20;-7.50;86.00
21108;DHT22;10712;52.944;9.098;2022-12-18T08:48:47;-7.50;86.10
21108;DHT22;10712;52.944;9.098;2022-12-18T08:51:15;-7.50;86.30
21108;DHT22;10712;52.944;9.098;2022-12-18T08:53:42;-7.50;86.50
21108;DHT22;10712;52.944;9.098;2022-12-18T08:56:09;-7.40;86.80
21108;DHT22;10712;52.944;9.098;2022-12-18T08:58:36;-7.30;86.80
21108;DHT22;10712;52.944;9.098;2022-12-18T09:01:02;-7.20;86.90
21108;DHT22;10712;52.944;9.098;2022-12-18T09:03:30;-7.20;86.90
21108;DHT22;10712;52.944;9.098;2022-12-18T09:05:56;-7.10;87.00
21108;DHT22;10712;52.944;9.098;2022-12-18T09:08:22;-7.00;87.10
21108;DHT22;10712;52.944;9.098;2022-12-18T09:10:48;-7.00;87.10
21108;DHT22;10712;52.944;9.098;2022-12-18T09:13:15;-6.90;87.30
21108;DHT22;10712;52.944;9.098;2022-12-18T09:15:42;-6.90;87.30
21108;DHT22;10712;52.944;9.098;2022-12-18T09:18:09;-6.80;87.50
21108;DHT22;10712;52.944;9.098;2022-12-18T09:20:35;-6.70;87.50
21108;DHT22;10712;52.944;9.098;2022-12-18T09:23:02;-6.60;87.50
21108;DHT22;10712;52.944;9.098;2022-12-18T09:25:28;-6.60;87.60
21108;DHT22;10712;52.944;9.098;2022-12-18T09:27:58;-6.50;87.80
21108;DHT22;10712;52.944;9.098;2022-12-18T09:30:25;-6.40;87.90
21108;DHT22;10712;52.944;9.098;2022-12-18T09:32:54;-6.40;88.00
21108;DHT22;10712;52.944;9.098;2022-12-18T09:35:20;-6.30;88.10
21108;DHT22;10712;52.944;9.098;2022-12-18T09:37:46;-6.20;88.20
21108;DHT22;10712;52.944;9.098;2022-12-18T09:40:16;-6.20;88.20
21108;DHT22;10712;52.944;9.098;2022-12-18T09:42:45;-6.10;88.20
21108;DHT22;10712;52.944;9.098;2022-12-18T09:45:16;-6.10;88.30
21108;DHT22;10712;52.944;9.098;2022-12-18T09:47:43;-6.00;88.30
21108;DHT22;10712;52.944;9.098;2022-12-18T09:50:26;-6.00;88.30
21108;DHT22;10712;52.944;9.098;2022-12-18T09:52:58;-6.00;88.30
21108;DHT22;10712;52.944;9.098;2022-12-18T09:55:50;-5.90;88.40
21108;DHT22;10712;52.944;9.098;2022-12-18T09:58:20;-5.90;88.60
21108;DHT22;10712;52.944;9.098;2022-12-18T10:00:55;-5.80;88.60
21108;DHT22;10712;52.944;9.098;2022-12-18T10:03:21;-5.80;88.80
21108;DHT22;10712;52.944;9.098;2022-12-18T10:08:49;-5.70;88.70
21108;DHT22;10712;52.944;9.098;2022-12-18T10:14:29;-5.50;88.80
21108;DHT22;10712;52.944;9.098;2022-12-18T10:19:52;-5.40;88.90
21108;DHT22;10712;52.944;9.098;2022-12-18T10:25:22;-5.30;88.80
21108;DHT22;10712;52.944;9.098;2022-12-18T10:27:53;-5.20;88.80
21108;DHT22;10712;52.944;9.098;2022-12-18T10:30:23;-5.20;88.80
21108;DHT22;10712;52.944;9.098;2022-12-18T10:32:50;-5.20;88.90
21108;DHT22;10712;52.944;9.098;2022-12-18T10:35:18;-5.10;88.90
21108;DHT22;10712;52.944;9.098;2022-12-18T10:37:59;-5.00;88.90
21108;DHT22;10712;52.944;9.098;2022-12-18T10:40:30;-5.00;88.90
21108;DHT22;10712;52.944;9.098;2022-12-18T10:43:15;-5.00;88.90
21108;DHT22;10712;52.944;9.098;2022-12-18T10:45:49;-4.90;89.00
21108;DHT22;10712;52.944;9.098;2022-12-18T10:51:26;-4.80;89.00
21108;DHT22;10712;52.944;9.098;2022-12-18T10:53:54;-4.80;88.90
21108;DHT22;10712;52.944;9.098;2022-12-18T10:56:20;-4.70;88.90
21108;DHT22;10712;52.944;9.098;2022-12-18T10:58:55;-4.70;89.00
21108;DHT22;10712;52.944;9.098;2022-12-18T11:01:22;-4.60;89.00
21108;DHT22;10712;52.944;9.098;2022-12-18T11:06:21;-4.60;88.90
21108;DHT22;10712;52.944;9.098;2022-12-18T11:11:24;-4.50;88.90
21108;DHT22;10712;52.944;9.098;2022-12-18T11:16:31;-4.40;89.00
21108;DHT22;10712;52.944;9.098;2022-12-18T11:19:09;-4.40;89.10
21108;DHT22;10712;52.944;9.098;2022-12-18T11:21:51;-4.40;89.10
21108;DHT22;10712;52.944;9.098;2022-12-18T11:24:19;-4.30;89.20
21108;DHT22;10712;52.944;9.098;2022-12-18T11:26:48;-4.20;89.40
21108;DHT22;10712;52.944;9.098;2022-12-18T11:29:17;-4.20;89.40
21108;DHT22;10712;52.944;9.098;2022-12-18T11:31:48;-4.10;89.40
21108;DHT22;10712;52.944;9.098;2022-12-18T11:34:21;-4.00;89.60
21108;DHT22;10712;52.944;9.098;2022-12-18T11:36:51;-3.90;89.50
21108;DHT22;10712;52.944;9.098;2022-12-18T11:47:32;-3.60;89.50
21108;DHT22;10712;52.944;9.098;2022-12-18T11:50:11;-3.50;89.60
21108;DHT22;10712;52.944;9.098;2022-12-18T11:52:41;-3.40;89.40
21108;DHT22;10712;52.944;9.098;2022-12-18T11:55:10;-3.40;89.30
21108;DHT22;10712;52.944;9.098;2022-12-18T12:00:19;-3.20;89.10
21108;DHT22;10712;52.944;9.098;2022-12-18T12:08:09;-3.00;88.40
21108;DHT22;10712;52.944;9.098;2022-12-18T12:16:02;-2.80;87.90
21108;DHT22;10712;52.944;9.098;2022-12-18T12:24:07;-2.70;87.40
21108;DHT22;10712;52.944;9.098;2022-12-18T12:27:05;-2.60;87.30
21108;DHT22;10712;52.944;9.098;2022-12-18T12:29:43;-2.60;87.20
21108;DHT22;10712;52.944;9.098;2022-12-18T12:37:54;-2.60;86.80
21108;DHT22;10712;52.944;9.098;2022-12-18T12:40:32;-2.60;86.80
21108;DHT22;10712;52.944;9.098;2022-12-18T12:43:03;-2.60;86.80
21108;DHT22;10712;52.944;9.098;2022-12-18T12:45:50;-2.60;87.00
21108;DHT22;10712;52.944;9.098;2022-12-18T12:49:03;-2.60;86.80
21108;DHT22;10712;52.944;9.098;2022-12-18T12:53:47;-2.60;86.60
21108;DHT22;10712;52.944;9.098;2022-12-18T12:56:15;-2.60;86.60
21108;DHT22;10712;52.944;9.098;2022-12-18T12:58:58;-2.50;86.60
21108;DHT22;10712;52.944;9.098;2022-12-18T13:01:47;-2.50;86.60
21108;DHT22;10712;52.944;9.098;2022-12-18T13:04:41;-2.60;86.50
21108;DHT22;10712;52.944;9.098;2022-12-18T13:07:15;-2.60;86.40
21108;DHT22;10712;52.944;9.098;2022-12-18T13:13:04;-2.60;86.50
21108;DHT22;10712;52.944;9.098;2022-12-18T13:15:33;-2.50;86.60
21108;DHT22;10712;52.944;9.098;2022-12-18T13:18:03;-2.50;86.60
21108;DHT22;10712;52.944;9.098;2022-12-18T13:20:34;-2.50;86.50
21108;DHT22;10712;52.944;9.098;2022-12-18T13:23:19;-2.50;86.60
21108;DHT22;10712;52.944;9.098;2022-12-18T13:25:48;-2.50;86.60
21108;DHT22;10712;52.944;9.098;2022-12-18T13:31:09;-2.50;86.70
21108;DHT22;10712;52.944;9.098;2022-12-18T13:33:44;-2.40;86.90
21108;DHT22;10712;52.944;9.098;2022-12-18T13:38:43;-2.40;86.50
21108;DHT22;10712;52.944;9.098;2022-12-18T13:41:24;-2.40;86.60
21108;DHT22;10712;52.944;9.098;2022-12-18T13:44:11;-2.40;86.60
21108;DHT22;10712;52.944;9.098;2022-12-18T13:46:47;-2.50;86.60
21108;DHT22;10712;52.944;9.098;2022-12-18T13:49:22;-2.50;86.70
21108;DHT22;10712;52.944;9.098;2022-12-18T13:51:53;-2.40;86.70
21108;DHT22;10712;52.944;9.098;2022-12-18T13:57:02;-2.50;86.80
21108;DHT22;10712;52.944;9.098;2022-12-18T13:59:35;-2.50;86.80
21108;DHT22;10712;52.944;9.098;2022-12-18T14:02:17;-2.40;86.80
21108;DHT22;10712;52.944;9.098;2022-12-18T14:04:47;-2.40;86.80
21108;DHT22;10712;52.944;9.098;2022-12-18T14:07:19;-2.40;86.70
21108;DHT22;10712;52.944;9.098;2022-12-18T14:09:58;-2.40;86.70
21108;DHT22;10712;52.944;9.098;2022-12-18T14:12:29;-2.40;86.40
21108;DHT22;10712;52.944;9.098;2022-12-18T14:15:34;-2.40;86.30
21108;DHT22;10712;52.944;9.098;2022-12-18T14:18:34;-2.40;85.90
21108;DHT22;10712;52.944;9.098;2022-12-18T14:21:28;-2.40;85.80
21108;DHT22;10712;52.944;9.098;2022-12-18T14:24:16;-2.30;85.20
21108;DHT22;10712;52.944;9.098;2022-12-18T14:26:45;-2.40;85.10
21108;DHT22;10712;52.944;9.098;2022-12-18T14:29:29;-2.40;85.10
21108;DHT22;10712;52.944;9.098;2022-12-18T14:32:16;-2.30;85.10
21108;DHT22;10712;52.944;9.098;2022-12-18T14:37:17;-2.30;84.30
21108;DHT22;10712;52.944;9.098;2022-12-18T14:40:12;-2.20;84.00
21108;DHT22;10712;52.944;9.098;2022-12-18T14:42:39;-2.20;83.70
21108;DHT22;10712;52.944;9.098;2022-12-18T14:48:11;-2.30;83.60
21108;DHT22;10712;52.944;9.098;2022-12-18T14:50:42;-2.30;83.40
21108;DHT22;10712;52.944;9.098;2022-12-18T14:53:26;-2.20;83.50
21108;DHT22;10712;52.944;9.098;2022-12-18T14:55:58;-2.30;83.40
21108;DHT22;10712;52.944;9.098;2022-12-18T14:58:24;-2.30;83.30
21108;DHT22;10712;52.944;9.098;2022-12-18T15:00:50;-2.30;82.90
21108;DHT22;10712;52.944;9.098;2022-12-18T15:03:19;-2.30;82.80
21108;DHT22;10712;52.944;9.098;2022-12-18T15:05:47;-2.30;82.90
21108;DHT22;10712;52.944;9.098;2022-12-18T15:08:36;-2.30;82.90
21108;DHT22;10712;52.944;9.098;2022-12-18T15:11:03;-2.30;83.00
21108;DHT22;10712;52.944;9.098;2022-12-18T15:13:29;-2.30;83.10
21108;DHT22;10712;52.944;9.098;2022-12-18T15:15:57;-2.30;82.90
21108;DHT22;10712;52.944;9.098;2022-12-18T15:18:34;-2.30;82.80
21108;DHT22;10712;52.944;9.098;2022-12-18T15:21:10;-2.40;82.90
21108;DHT22;10712;52.944;9.098;2022-12-18T15:23:47;-2.40;82.70
21108;DHT22;10712;52.944;9.098;2022-12-18T15:26:18;-2.40;82.50
21108;DHT22;10712;52.944;9.098;2022-12-18T15:28:52;-2.40;82.50
21108;DHT22;10712;52.944;9.098;2022-12-18T15:31:32;-2.40;82.50
21108;DHT22;10712;52.944;9.098;2022-12-18T15:34:13;-2.40;81.70
21108;DHT22;10712;52.944;9.098;2022-12-18T15:36:46;-2.40;81.60
21108;DHT22;10712;52.944;9.098;2022-12-18T15:39:12;-2.40;81.30
21108;DHT22;10712;52.944;9.098;2022-12-18T15:41:38;-2.40;81.10
21108;DHT22;10712;52.944;9.098;2022-12-18T15:44:23;-2.30;80.70
21108;DHT22;10712;52.944;9.098;2022-12-18T15:46:50;-2.30;80.60
21108;DHT22;10712;52.944;9.098;2022-12-18T15:49:15;-2.30;80.60
21108;DHT22;10712;52.944;9.098;2022-12-18T15:51:41;-2.40;80.50
21108;DHT22;10712;52.944;9.098;2022-12-18T15:54:12;-2.30;80.30
21108;DHT22;10712;52.944;9.098;2022-12-18T15:56:42;-2.40;80.30
21108;DHT22;10712;52.944;9.098;2022-12-18T15:59:26;-2.40;80.40
21108;DHT22;10712;52.944;9.098;2022-12-18T16:01:52;-2.30;80.30
21108;DHT22;10712;52.944;9.098;2022-12-18T16:04:19;-2.30;80.20
21108;DHT22;10712;52.944;9.098;2022-12-18T16:06:47;-2.30;80.10
21108;DHT22;10712;52.944;9.098;2022-12-18T16:09:13;-2.30;79.90
21108;DHT22;10712;52.944;9.098;2022-12-18T16:11:41;-2.30;80.00
21108;DHT22;10712;52.944;9.098;2022-12-18T16:14:28;-2.30;80.00
21108;DHT22;10712;52.944;9.098;2022-12-18T16:17:00;-2.30;80.20
21108;DHT22;10712;52.944;9.098;2022-12-18T16:19:28;-2.30;80.20
21108;DHT22;10712;52.944;9.098;2022-12-18T16:21:56;-2.30;80.30
21108;DHT22;10712;52.944;9.098;2022-12-18T16:24:27;-2.30;80.20
21108;DHT22;10712;52.944;9.098;2022-12-18T16:26:56;-2.30;80.20
21108;DHT22;10712;52.944;9.098;2022-12-18T16:29:25;-2.30;80.50
21108;DHT22;10712;52.944;9.098;2022-12-18T16:32:01;-2.40;80.60
21108;DHT22;10712;52.944;9.098;2022-12-18T16:34:29;-2.40;80.70
21108;DHT22;10712;52.944;9.098;2022-12-18T16:36:59;-2.40;80.90
21108;DHT22;10712;52.944;9.098;2022-12-18T16:39:27;-2.40;80.90
21108;DHT22;10712;52.944;9.098;2022-12-18T16:41:53;-2.40;81.00
21108;DHT22;10712;52.944;9.098;2022-12-18T16:44:19;-2.40;81.10
21108;DHT22;10712;52.944;9.098;2022-12-18T16:46:45;-2.40;81.30
21108;DHT22;10712;52.944;9.098;2022-12-18T16:49:13;-2.40;81.40
21108;DHT22;10712;52.944;9.098;2022-12-18T16:51:40;-2.40;81.30
21108;DHT22;10712;52.944;9.098;2022-12-18T16:54:06;-2.40;81.30
21108;DHT22;10712;52.944;9.098;2022-12-18T16:56:32;-2.40;81.40
21108;DHT22;10712;52.944;9.098;2022-12-18T16:59:00;-2.40;81.70
21108;DHT22;10712;52.944;9.098;2022-12-18T17:01:28;-2.40;81.80
21108;DHT22;10712;52.944;9.098;2022-12-18T17:04:00;-2.40;81.80
21108;DHT22;10712;52.944;9.098;2022-12-18T17:06:30;-2.40;81.90
21108;DHT22;10712;52.944;9.098;2022-12-18T17:09:05;-2.40;82.00
21108;DHT22;10712;52.944;9.098;2022-12-18T17:11:34;-2.40;82.00
21108;DHT22;10712;52.944;9.098;2022-12-18T17:14:06;-2.40;82.10
21108;DHT22;10712;52.944;9.098;2022-12-18T17:16:37;-2.40;82.20
21108;DHT22;10712;52.944;9.098;2022-12-18T17:19:03;-2.40;82.30
21108;DHT22;10712;52.944;9.098;2022-12-18T17:21:29;-2.30;82.20
21108;DHT22;10712;52.944;9.098;2022-12-18T17:23:59;-2.30;81.70
21108;DHT22;10712;52.944;9.098;2022-12-18T17:26:26;-2.20;81.50